sensor_id;sensor_type;location;lat;lon;timestamp;temperature;humidity
56861;DHT22;42744;51.094;3.490;2022-11-20T00:01:30;4.40;99.90
56861;DHT22;42744;51.094;3.490;2022-11-20T00:03:57;4.40;99.90
56861;DHT22;42744;51.094;3.490;2022-11-20T00:06:24;4.50;99.90
56861;DHT22;42744;51.094;3.490;2022-11-20T00:08:51;4.50;99.90
56861;DHT22;42744;51.094;3.490;2022-11-20T00:11:20;4.50;99.90
56861;DHT22;42744;51.094;3.490;2022-11-20T00:13:47;4.50;99.90
56861;DHT22;42744;51.094;3.490;2022-11-20T00:16:16;4.50;99.90
56861;DHT22;42744;51.094;3.490;2022-11-20T00:18:42;4.50;99.90
56861;DHT22;42744;51.094;3.490;2022-11-20T00:21:15;4.50;99.90
56861;DHT22;42744;51.094;3.490;2022-11-20T00:23:41;4.50;99.90
56861;DHT22;42744;51.094;3.490;2022-11-20T00:26:10;4.50;99.90
56861;DHT22;42744;51.094;3.490;2022-11-20T00:28:36;4.50;99.90
56861;DHT22;42744;51.094;3.490;2022-11-20T00:31:06;4.50;99.90
56861;DHT22;42744;51.094;3.490;2022-11-20T00:33:33;4.50;99.90
56861;DHT22;42744;51.094;3.490;2022-11-20T00:36:01;4.50;99.90
56861;DHT22;42744;51.094;3.490;2022-11-20T00:38:27;4.50;99.90
56861;DHT22;42744;51.094;3.490;2022-11-20T00:40:57;4.60;99.90
56861;DHT22;42744;51.094;3.490;2022-11-20T00:43:24;4.60;99.90
56861;DHT22;42744;51.094;3.490;2022-11-20T00:45:50;4.60;99.90
56861;DHT22;42744;51.094;3.490;2022-11-20T00:48:16;4.60;99.90
56861;DHT22;42744;51.094;3.490;2022-11-20T00:50:42;4.50;99.90
56861;DHT22;42744;51.094;3.490;2022-11-20T00:53:08;4.50;99.90
56861;DHT22;42744;51.094;3.490;2022-11-20T00:55:34;4.50;99.90
56861;DHT22;42744;51.094;3.490;2022-11-20T00:58:03;4.50;99.90
56861;DHT22;42744;51.094;3.490;2022-11-20T01:00:29;4.50;99.90
56861;DHT22;42744;51.094;3.490;2022-11-20T01:02:56;4.50;99.90
56861;DHT22;42744;51.094;3.490;2022-11-20T01:05:21;4.50;99.90
56861;DHT22;42744;51.094;3.490;2022-11-20T01:07:47;4.50;99.90
56861;DHT22;42744;51.094;3.490;2022-11-20T01:10:14;4.60;99.90
56861;DHT22;42744;51.094;3.490;2022-11-20T01:12:39;4.50;99.90
56861;DHT22;42744;51.094;3.490;2022-11-20T01:15:06;4.50;99.90
56861;DHT22;42744;51.094;3.490;2022-11-20T01:17:37;4.50;99.90
56861;DHT22;42744;51.094;3.490;2022-11-20T01:20:04;4.60;99.90
56861;DHT22;42744;51.094;3.490;2022-11-20T01:22:30;4.60;99.90
56861;DHT22;42744;51.094;3.490;2022-11-20T01:24:56;4.60;99.90
56861;DHT22;42744;51.094;3.490;2022-11-20T01:27:22;4.60;99.90
56861;DHT22;42744;51.094;3.490;2022-11-20T01:29:48;4.60;99.90
56861;DHT22;42744;51.094;3.490;2022-11-20T01:32:14;4.60;99.90
56861;DHT22;42744;51.094;3.490;2022-11-20T01:34:40;4.70;99.90
56861;DHT22;42744;51.094;3.490;2022-11-20T01:37:05;4.70;99.90
56861;DHT22;42744;51.094;3.490;2022-11-20T01:39:32;4.70;99.90
56861;DHT22;42744;51.094;3.490;2022-11-20T01:41:58;4.70;99.90
56861;DHT22;42744;51.094;3.490;2022-11-20T01:44:53;4.60;99.90
56861;DHT22;42744;51.094;3.490;2022-11-20T01:53:07;4.60;99.90
56861;DHT22;42744;51.094;3.490;2022-11-20T01:55:38;4.60;99.90
56861;DHT22;42744;51.094;3.490;2022-11-20T01:58:06;4.60;99.90
56861;DHT22;42744;51.094;3.490;2022-11-20T02:00:32;4.60;99.90
56861;DHT22;42744;51.094;3.490;2022-11-20T02:03:00;4.60;99.90
56861;DHT22;42744;51.094;3.490;2022-11-20T02:05:51;4.60;99.90
56861;DHT22;42744;51.094;3.490;2022-11-20T02:08:20;4.60;99.90
56861;DHT22;42744;51.094;3.490;2022-11-20T02:10:47;4.60;99.90
56861;DHT22;42744;51.094;3.490;2022-11-20T02:13:13;4.60;99.90
56861;DHT22;42744;51.094;3.490;2022-11-20T02:15:57;4.60;99.90
56861;DHT22;42744;51.094;3.490;2022-11-20T02:18:24;4.60;99.90
56861;DHT22;42744;51.094;3.490;2022-11-20T02:20:56;4.60;99.90
56861;DHT22;42744;51.094;3.490;2022-11-20T02:23:52;4.60;99.90
56861;DHT22;42744;51.094;3.490;2022-11-20T02:26:21;4.70;99.90
56861;DHT22;42744;51.094;3.490;2022-11-20T02:28:49;4.70;99.90
56861;DHT22;42744;51.094;3.490;2022-11-20T02:31:16;4.70;99.90
56861;DHT22;42744;51.094;3.490;2022-11-20T02:33:42;4.70;99.90
56861;DHT22;42744;51.094;3.490;2022-11-20T02:36:14;4.70;99.90
56861;DHT22;42744;51.094;3.490;2022-11-20T02:38:41;4.70;99.90
56861;DHT22;42744;51.094;3.490;2022-11-20T02:41:07;4.70;99.90
56861;DHT22;42744;51.094;3.490;2022-11-20T02:43:33;4.70;99.90
56861;DHT22;42744;51.094;3.490;2022-11-20T02:45:59;4.70;99.90
56861;DHT22;42744;51.094;3.490;2022-11-20T02:48:25;4.70;99.90
56861;DHT22;42744;51.094;3.490;2022-11-20T02:50:51;4.70;99.90
56861;DHT22;42744;51.094;3.490;2022-11-20T02:53:19;4.70;99.90
56861;DHT22;42744;51.094;3.490;2022-11-20T02:55:45;4.70;99.90
56861;DHT22;42744;51.094;3.490;2022-11-20T02:58:14;4.70;99.90
56861;DHT22;42744;51.094;3.490;2022-11-20T03:00:40;4.70;99.90
56861;DHT22;42744;51.094;3.490;2022-11-20T03:03:05;4.70;99.90
56861;DHT22;42744;51.094;3.490;2022-11-20T03:05:32;4.70;99.90
56861;DHT22;42744;51.094;3.490;2022-11-20T03:08:03;4.70;99.90
56861;DHT22;42744;51.094;3.490;2022-11-20T03:10:28;4.70;99.90
56861;DHT22;42744;51.094;3.490;2022-11-20T03:12:57;4.80;99.90
56861;DHT22;42744;51.094;3.490;2022-11-20T03:15:23;4.80;99.90
56861;DHT22;42744;51.094;3.490;2022-11-20T03:17:53;4.70;99.90
56861;DHT22;42744;51.094;3.490;2022-11-20T03:20:20;4.80;99.90
56861;DHT22;42744;51.094;3.490;2022-11-20T03:22:46;4.80;99.90
56861;DHT22;42744;51.094;3.490;2022-11-20T03:25:12;4.80;99.90
56861;DHT22;42744;51.094;3.490;2022-11-20T03:27:40;4.80;99.90
56861;DHT22;42744;51.094;3.490;2022-11-20T03:30:06;4.80;99.90
56861;DHT22;42744;51.094;3.490;2022-11-20T03:32:32;4.80;99.90
56861;DHT22;42744;51.094;3.490;2022-11-20T03:34:58;4.80;99.90
56861;DHT22;42744;51.094;3.490;2022-11-20T03:37:24;4.80;99.90
56861;DHT22;42744;51.094;3.490;2022-11-20T03:39:50;4.80;99.90
56861;DHT22;42744;51.094;3.490;2022-11-20T03:42:16;4.80;99.90
56861;DHT22;42744;51.094;3.490;2022-11-20T03:45:00;4.80;99.90
56861;DHT22;42744;51.094;3.490;2022-11-20T03:47:27;4.80;99.90
56861;DHT22;42744;51.094;3.490;2022-11-20T03:49:52;4.80;99.90
56861;DHT22;42744;51.094;3.490;2022-11-20T03:52:18;4.80;99.90
56861;DHT22;42744;51.094;3.490;2022-11-20T03:54:44;4.80;99.90
56861;DHT22;42744;51.094;3.490;2022-11-20T03:57:10;4.80;99.90
56861;DHT22;42744;51.094;3.490;2022-11-20T03:59:36;4.80;99.90
56861;DHT22;42744;51.094;3.490;2022-11-20T04:02:02;4.80;99.90
56861;DHT22;42744;51.094;3.490;2022-11-20T04:04:28;4.80;99.90
56861;DHT22;42744;51.094;3.490;2022-11-20T04:06:54;4.80;99.90
56861;DHT22;42744;51.094;3.490;2022-11-20T04:09:20;4.80;99.90
56861;DHT22;42744;51.094;3.490;2022-11-20T04:11:46;4.80;99.90
56861;DHT22;42744;51.094;3.490;2022-11-20T04:14:14;4.90;99.90
56861;DHT22;42744;51.094;3.490;2022-11-20T04:16:41;4.80;99.90
56861;DHT22;42744;51.094;3.490;2022-11-20T04:19:11;4.90;99.90
56861;DHT22;42744;51.094;3.490;2022-11-20T04:21:37;4.90;99.90
56861;DHT22;42744;51.094;3.490;2022-11-20T04:24:03;4.90;99.90
56861;DHT22;42744;51.094;3.490;2022-11-20T04:26:30;4.80;99.90
56861;DHT22;42744;51.094;3.490;2022-11-20T04:28:58;4.80;99.90
56861;DHT22;42744;51.094;3.490;2022-11-20T04:31:27;4.80;99.90
56861;DHT22;42744;51.094;3.490;2022-11-20T04:33:54;4.80;99.90
56861;DHT22;42744;51.094;3.490;2022-11-20T04:36:25;4.80;99.90
56861;DHT22;42744;51.094;3.490;2022-11-20T04:39:03;4.70;99.90
56861;DHT22;42744;51.094;3.490;2022-11-20T04:41:35;4.80;99.90
56861;DHT22;42744;51.094;3.490;2022-11-20T04:44:03;4.80;99.90
56861;DHT22;42744;51.094;3.490;2022-11-20T04:46:36;4.80;99.90
56861;DHT22;42744;51.094;3.490;2022-11-20T04:49:03;4.80;99.90
56861;DHT22;42744;51.094;3.490;2022-11-20T04:51:29;4.80;99.90
56861;DHT22;42744;51.094;3.490;2022-11-20T04:53:55;4.90;99.90
56861;DHT22;42744;51.094;3.490;2022-11-20T04:56:21;4.80;99.90
56861;DHT22;42744;51.094;3.490;2022-11-20T04:58:47;4.90;99.90
56861;DHT22;42744;51.094;3.490;2022-11-20T05:01:15;4.90;99.90
56861;DHT22;42744;51.094;3.490;2022-11-20T05:03:42;4.80;99.90
56861;DHT22;42744;51.094;3.490;2022-11-20T05:06:11;4.80;99.90
56861;DHT22;42744;51.094;3.490;2022-11-20T05:08:37;4.80;99.90
56861;DHT22;42744;51.094;3.490;2022-11-20T05:11:23;4.80;99.90
56861;DHT22;42744;51.094;3.490;2022-11-20T05:13:51;4.80;99.90
56861;DHT22;42744;51.094;3.490;2022-11-20T05:16:22;4.80;99.90
56861;DHT22;42744;51.094;3.490;2022-11-20T05:18:49;4.80;99.90
56861;DHT22;42744;51.094;3.490;2022-11-20T05:21:16;4.80;99.90
56861;DHT22;42744;51.094;3.490;2022-11-20T05:23:43;4.80;99.90
56861;DHT22;42744;51.094;3.490;2022-11-20T05:26:14;4.90;99.90
56861;DHT22;42744;51.094;3.490;2022-11-20T05:28:41;4.90;99.90
56861;DHT22;42744;51.094;3.490;2022-11-20T05:31:12;4.90;99.90
56861;DHT22;42744;51.094;3.490;2022-11-20T05:33:41;4.90;99.90
56861;DHT22;42744;51.094;3.490;2022-11-20T05:36:07;4.90;99.90
56861;DHT22;42744;51.094;3.490;2022-11-20T05:38:34;4.90;99.90
56861;DHT22;42744;51.094;3.490;2022-11-20T05:41:14;4.90;99.90
56861;DHT22;42744;51.094;3.490;2022-11-20T05:43:42;5.00;99.90
56861;DHT22;42744;51.094;3.490;2022-11-20T05:46:11;5.00;99.90
56861;DHT22;42744;51.094;3.490;2022-11-20T05:48:38;5.00;99.90
56861;DHT22;42744;51.094;3.490;2022-11-20T05:51:06;4.90;99.90
56861;DHT22;42744;51.094;3.490;2022-11-20T05:53:33;5.00;99.90
56861;DHT22;42744;51.094;3.490;2022-11-20T05:56:01;5.00;99.90
56861;DHT22;42744;51.094;3.490;2022-11-20T05:58:28;5.00;99.90
56861;DHT22;42744;51.094;3.490;2022-11-20T06:00:58;5.00;99.90
56861;DHT22;42744;51.094;3.490;2022-11-20T06:03:28;5.00;99.90
56861;DHT22;42744;51.094;3.490;2022-11-20T06:05:54;5.00;99.90
56861;DHT22;42744;51.094;3.490;2022-11-20T06:08:20;5.00;99.90
56861;DHT22;42744;51.094;3.490;2022-11-20T06:10:46;5.00;99.90
56861;DHT22;42744;51.094;3.490;2022-11-20T06:13:12;5.00;99.90
56861;DHT22;42744;51.094;3.490;2022-11-20T06:15:38;5.00;99.90
56861;DHT22;42744;51.094;3.490;2022-11-20T06:18:04;5.00;99.90
56861;DHT22;42744;51.094;3.490;2022-11-20T06:20:30;5.10;99.90
56861;DHT22;42744;51.094;3.490;2022-11-20T06:22:56;5.00;99.90
56861;DHT22;42744;51.094;3.490;2022-11-20T06:25:22;5.00;99.90
56861;DHT22;42744;51.094;3.490;2022-11-20T06:27:48;5.10;99.90
56861;DHT22;42744;51.094;3.490;2022-11-20T06:30:14;5.10;99.90
56861;DHT22;42744;51.094;3.490;2022-11-20T06:32:40;5.10;99.90
56861;DHT22;42744;51.094;3.490;2022-11-20T06:35:06;5.10;99.90
56861;DHT22;42744;51.094;3.490;2022-11-20T06:37:32;5.10;99.90
56861;DHT22;42744;51.094;3.490;2022-11-20T06:39:58;5.10;99.90
56861;DHT22;42744;51.094;3.490;2022-11-20T06:42:24;5.10;99.90
56861;DHT22;42744;51.094;3.490;2022-11-20T06:44:50;5.10;99.90
56861;DHT22;42744;51.094;3.490;2022-11-20T06:47:17;5.10;99.90
56861;DHT22;42744;51.094;3.490;2022-11-20T06:49:43;5.20;99.90
56861;DHT22;42744;51.094;3.490;2022-11-20T06:52:08;5.20;99.90
56861;DHT22;42744;51.094;3.490;2022-11-20T06:54:35;5.20;99.90
56861;DHT22;42744;51.094;3.490;2022-11-20T06:57:00;5.20;99.90
56861;DHT22;42744;51.094;3.490;2022-11-20T06:59:26;5.20;99.90
56861;DHT22;42744;51.094;3.490;2022-11-20T07:01:52;5.20;99.90
56861;DHT22;42744;51.094;3.490;2022-11-20T07:04:18;5.20;99.90
56861;DHT22;42744;51.094;3.490;2022-11-20T07:06:44;5.30;99.90
56861;DHT22;42744;51.094;3.490;2022-11-20T07:09:10;5.30;99.90
56861;DHT22;42744;51.094;3.490;2022-11-20T07:11:36;5.30;99.90
56861;DHT22;42744;51.094;3.490;2022-11-20T07:14:02;5.30;99.90
56861;DHT22;42744;51.094;3.490;2022-11-20T07:16:28;5.30;99.90
56861;DHT22;42744;51.094;3.490;2022-11-20T07:18:54;5.30;99.90
56861;DHT22;42744;51.094;3.490;2022-11-20T07:21:20;5.30;99.90
56861;DHT22;42744;51.094;3.490;2022-11-20T07:23:46;5.30;99.90
56861;DHT22;42744;51.094;3.490;2022-11-20T07:26:12;5.30;99.90
56861;DHT22;42744;51.094;3.490;2022-11-20T07:28:38;5.30;99.90
56861;DHT22;42744;51.094;3.490;2022-11-20T07:31:05;5.30;99.90
56861;DHT22;42744;51.094;3.490;2022-11-20T07:33:32;5.30;99.90
56861;DHT22;42744;51.094;3.490;2022-11-20T07:35:59;5.30;99.90
56861;DHT22;42744;51.094;3.490;2022-11-20T07:38:25;5.40;99.90
56861;DHT22;42744;51.094;3.490;2022-11-20T07:40:55;5.40;99.90
56861;DHT22;42744;51.094;3.490;2022-11-20T07:43:23;5.40;99.90
56861;DHT22;42744;51.094;3.490;2022-11-20T07:45:50;5.40;99.90
56861;DHT22;42744;51.094;3.490;2022-11-20T07:48:16;5.40;99.90
56861;DHT22;42744;51.094;3.490;2022-11-20T07:50:42;5.40;99.90
56861;DHT22;42744;51.094;3.490;2022-11-20T07:53:08;5.50;99.90
56861;DHT22;42744;51.094;3.490;2022-11-20T07:55:34;5.50;99.90
56861;DHT22;42744;51.094;3.490;2022-11-20T07:58:00;5.50;99.90
56861;DHT22;42744;51.094;3.490;2022-11-20T08:00:26;5.50;99.90
56861;DHT22;42744;51.094;3.490;2022-11-20T08:02:53;5.60;99.90
56861;DHT22;42744;51.094;3.490;2022-11-20T08:05:19;5.50;99.90
56861;DHT22;42744;51.094;3.490;2022-11-20T08:07:45;5.60;99.90
56861;DHT22;42744;51.094;3.490;2022-11-20T08:10:13;5.60;99.90
56861;DHT22;42744;51.094;3.490;2022-11-20T08:12:50;5.60;99.90
56861;DHT22;42744;51.094;3.490;2022-11-20T08:15:36;5.60;99.90
56861;DHT22;42744;51.094;3.490;2022-11-20T08:18:05;5.60;99.90
56861;DHT22;42744;51.094;3.490;2022-11-20T08:20:32;5.60;99.90
56861;DHT22;42744;51.094;3.490;2022-11-20T08:23:03;5.60;99.90
56861;DHT22;42744;51.094;3.490;2022-11-20T08:25:29;5.60;99.90
56861;DHT22;42744;51.094;3.490;2022-11-20T08:28:04;5.70;99.90
56861;DHT22;42744;51.094;3.490;2022-11-20T08:30:31;5.60;99.90
56861;DHT22;42744;51.094;3.490;2022-11-20T08:33:01;5.70;99.90
56861;DHT22;42744;51.094;3.490;2022-11-20T08:35:28;5.70;99.90
56861;DHT22;42744;51.094;3.490;2022-11-20T08:37:54;5.80;99.90
56861;DHT22;42744;51.094;3.490;2022-11-20T08:40:20;5.80;99.90
56861;DHT22;42744;51.094;3.490;2022-11-20T08:42:50;5.80;99.90
56861;DHT22;42744;51.094;3.490;2022-11-20T08:45:17;5.80;99.90
56861;DHT22;42744;51.094;3.490;2022-11-20T08:47:45;5.90;99.90
56861;DHT22;42744;51.094;3.490;2022-11-20T08:50:13;5.90;99.90
56861;DHT22;42744;51.094;3.490;2022-11-20T08:52:40;5.90;99.90
56861;DHT22;42744;51.094;3.490;2022-11-20T08:55:10;5.90;99.90
56861;DHT22;42744;51.094;3.490;2022-11-20T08:57:37;6.00;99.90
56861;DHT22;42744;51.094;3.490;2022-11-20T09:00:06;6.00;99.90
56861;DHT22;42744;51.094;3.490;2022-11-20T09:02:32;6.00;99.90
56861;DHT22;42744;51.094;3.490;2022-11-20T09:04:58;6.10;99.90
56861;DHT22;42744;51.094;3.490;2022-11-20T09:07:24;6.10;99.90
56861;DHT22;42744;51.094;3.490;2022-11-20T09:09:50;6.20;99.90
56861;DHT22;42744;51.094;3.490;2022-11-20T09:12:16;6.20;99.90
56861;DHT22;42744;51.094;3.490;2022-11-20T09:14:42;6.20;99.90
56861;DHT22;42744;51.094;3.490;2022-11-20T09:17:10;6.30;99.90
56861;DHT22;42744;51.094;3.490;2022-11-20T09:19:39;6.30;99.90
56861;DHT22;42744;51.094;3.490;2022-11-20T09:22:06;6.40;99.90
56861;DHT22;42744;51.094;3.490;2022-11-20T09:24:32;6.40;99.90
56861;DHT22;42744;51.094;3.490;2022-11-20T09:27:01;6.50;99.90
56861;DHT22;42744;51.094;3.490;2022-11-20T09:29:27;6.50;99.90
56861;DHT22;42744;51.094;3.490;2022-11-20T09:31:56;6.50;99.90
56861;DHT22;42744;51.094;3.490;2022-11-20T09:34:22;6.60;99.90
56861;DHT22;42744;51.094;3.490;2022-11-20T09:36:48;6.60;99.90
56861;DHT22;42744;51.094;3.490;2022-11-20T09:39:14;6.70;99.90
56861;DHT22;42744;51.094;3.490;2022-11-20T09:44:30;6.80;99.90
56861;DHT22;42744;51.094;3.490;2022-11-20T09:55:45;7.10;99.90
56861;DHT22;42744;51.094;3.490;2022-11-20T09:58:24;7.20;99.90
56861;DHT22;42744;51.094;3.490;2022-11-20T10:00:52;7.30;99.90
56861;DHT22;42744;51.094;3.490;2022-11-20T10:09:07;7.40;99.90
56861;DHT22;42744;51.094;3.490;2022-11-20T10:23:16;7.70;99.90
56861;DHT22;42744;51.094;3.490;2022-11-20T10:28:28;7.70;99.90
56861;DHT22;42744;51.094;3.490;2022-11-20T10:31:06;7.80;99.90
56861;DHT22;42744;51.094;3.490;2022-11-20T10:33:36;7.90;99.90
56861;DHT22;42744;51.094;3.490;2022-11-20T10:36:17;7.90;99.90
56861;DHT22;42744;51.094;3.490;2022-11-20T10:39:05;7.90;99.90
56861;DHT22;42744;51.094;3.490;2022-11-20T10:41:38;8.10;99.90
56861;DHT22;42744;51.094;3.490;2022-11-20T10:44:26;8.10;99.90
56861;DHT22;42744;51.094;3.490;2022-11-20T10:47:17;8.10;99.90
56861;DHT22;42744;51.094;3.490;2022-11-20T10:49:51;8.10;99.90
56861;DHT22;42744;51.094;3.490;2022-11-20T10:57:52;8.20;99.90
56861;DHT22;42744;51.094;3.490;2022-11-20T11:00:20;8.30;99.90
56861;DHT22;42744;51.094;3.490;2022-11-20T11:02:51;8.30;99.90
56861;DHT22;42744;51.094;3.490;2022-11-20T11:07:55;8.40;99.90
56861;DHT22;42744;51.094;3.490;2022-11-20T11:10:32;8.40;99.90
56861;DHT22;42744;51.094;3.490;2022-11-20T11:13:01;8.40;99.90
56861;DHT22;42744;51.094;3.490;2022-11-20T11:15:35;8.40;99.90
56861;DHT22;42744;51.094;3.490;2022-11-20T11:18:02;8.40;99.90
56861;DHT22;42744;51.094;3.490;2022-11-20T11:20:29;8.40;99.90
56861;DHT22;42744;51.094;3.490;2022-11-20T11:22:57;8.40;99.90
56861;DHT22;42744;51.094;3.490;2022-11-20T11:25:35;8.30;99.90
56861;DHT22;42744;51.094;3.490;2022-11-20T11:28:18;8.30;99.90
56861;DHT22;42744;51.094;3.490;2022-11-20T11:30:45;8.20;99.90
56861;DHT22;42744;51.094;3.490;2022-11-20T11:33:19;8.10;99.90
56861;DHT22;42744;51.094;3.490;2022-11-20T11:35:47;8.10;99.90
56861;DHT22;42744;51.094;3.490;2022-11-20T11:38:16;8.10;99.90
56861;DHT22;42744;51.094;3.490;2022-11-20T11:40:46;8.00;99.90
56861;DHT22;42744;51.094;3.490;2022-11-20T11:43:26;7.90;99.90
56861;DHT22;42744;51.094;3.490;2022-11-20T11:54:47;7.80;99.90
56861;DHT22;42744;51.094;3.490;2022-11-20T12:00:13;7.80;99.90
56861;DHT22;42744;51.094;3.490;2022-11-20T12:05:20;7.80;99.90
56861;DHT22;42744;51.094;3.490;2022-11-20T12:10:50;7.80;99.90
56861;DHT22;42744;51.094;3.490;2022-11-20T12:15:53;7.70;99.90
56861;DHT22;42744;51.094;3.490;2022-11-20T12:18:21;7.70;99.90
56861;DHT22;42744;51.094;3.490;2022-11-20T12:27:04;7.70;99.90
56861;DHT22;42744;51.094;3.490;2022-11-20T12:29:47;7.70;99.90
56861;DHT22;42744;51.094;3.490;2022-11-20T12:43:47;7.80;99.90
56861;DHT22;42744;51.094;3.490;2022-11-20T12:47:23;7.80;99.90
56861;DHT22;42744;51.094;3.490;2022-11-20T12:49:59;7.80;99.90
56861;DHT22;42744;51.094;3.490;2022-11-20T12:52:44;7.80;99.90
56861;DHT22;42744;51.094;3.490;2022-11-20T12:55:28;7.80;99.90
56861;DHT22;42744;51.094;3.490;2022-11-20T12:58:09;7.80;99.90
56861;DHT22;42744;51.094;3.490;2022-11-20T13:00:38;7.80;99.90
56861;DHT22;42744;51.094;3.490;2022-11-20T13:06:01;7.90;99.90
56861;DHT22;42744;51.094;3.490;2022-11-20T13:08:38;7.80;99.90
56861;DHT22;42744;51.094;3.490;2022-11-20T13:17:07;7.90;99.90
56861;DHT22;42744;51.094;3.490;2022-11-20T13:19:36;7.90;99.90
56861;DHT22;42744;51.094;3.490;2022-11-20T13:22:02;8.00;99.90
56861;DHT22;42744;51.094;3.490;2022-11-20T13:24:30;8.00;99.90
56861;DHT22;42744;51.094;3.490;2022-11-20T13:29:42;8.00;99.90
56861;DHT22;42744;51.094;3.490;2022-11-20T13:32:21;8.00;99.90
56861;DHT22;42744;51.094;3.490;2022-11-20T13:34:52;8.00;99.90
56861;DHT22;42744;51.094;3.490;2022-11-20T13:40:25;8.00;99.90
56861;DHT22;42744;51.094;3.490;2022-11-20T13:43:02;8.00;99.90
56861;DHT22;42744;51.094;3.490;2022-11-20T13:45:30;8.10;99.90
56861;DHT22;42744;51.094;3.490;2022-11-20T13:48:04;8.10;99.90
56861;DHT22;42744;51.094;3.490;2022-11-20T14:01:17;8.40;99.90
56861;DHT22;42744;51.094;3.490;2022-11-20T14:03:45;8.50;99.90
56861;DHT22;42744;51.094;3.490;2022-11-20T14:06:22;8.50;99.90
56861;DHT22;42744;51.094;3.490;2022-11-20T14:08:50;8.60;99.90
56861;DHT22;42744;51.094;3.490;2022-11-20T14:11:21;8.80;99.90
56861;DHT22;42744;51.094;3.490;2022-11-20T14:14:00;8.90;99.90
56861;DHT22;42744;51.094;3.490;2022-11-20T14:16:30;9.00;99.90
56861;DHT22;42744;51.094;3.490;2022-11-20T14:18:57;9.10;99.90
56861;DHT22;42744;51.094;3.490;2022-11-20T14:21:28;9.20;99.90
56861;DHT22;42744;51.094;3.490;2022-11-20T14:24:11;9.20;99.90
56861;DHT22;42744;51.094;3.490;2022-11-20T14:26:42;9.30;99.90
56861;DHT22;42744;51.094;3.490;2022-11-20T14:29:19;9.40;99.90
56861;DHT22;42744;51.094;3.490;2022-11-20T14:31:48;9.40;99.90
56861;DHT22;42744;51.094;3.490;2022-11-20T14:34:21;9.40;99.90
56861;DHT22;42744;51.094;3.490;2022-11-20T14:36:48;9.40;99.90
56861;DHT22;42744;51.094;3.490;2022-11-20T14:39:34;9.40;99.90
56861;DHT22;42744;51.094;3.490;2022-11-20T14:42:02;9.50;99.90
56861;DHT22;42744;51.094;3.490;2022-11-20T14:44:33;9.50;99.90
56861;DHT22;42744;51.094;3.490;2022-11-20T14:47:02;9.50;99.90
56861;DHT22;42744;51.094;3.490;2022-11-20T14:49:30;9.50;99.90
56861;DHT22;42744;51.094;3.490;2022-11-20T14:52:02;9.50;99.90
56861;DHT22;42744;51.094;3.490;2022-11-20T14:54:29;9.50;99.90
56861;DHT22;42744;51.094;3.490;2022-11-20T14:56:56;9.50;99.90
56861;DHT22;42744;51.094;3.490;2022-11-20T14:59:28;9.50;99.90
56861;DHT22;42744;51.094;3.490;2022-11-20T15:01:58;9.50;99.90
56861;DHT22;42744;51.094;3.490;2022-11-20T15:04:24;9.50;99.90
56861;DHT22;42744;51.094;3.490;2022-11-20T15:06:53;9.40;99.90
56861;DHT22;42744;51.094;3.490;2022-11-20T15:09:19;9.30;99.90
56861;DHT22;42744;51.094;3.490;2022-11-20T15:12:02;9.30;99.90
56861;DHT22;42744;51.094;3.490;2022-11-20T15:14:30;9.20;99.90
56861;DHT22;42744;51.094;3.490;2022-11-20T15:16:56;9.20;99.90
56861;DHT22;42744;51.094;3.490;2022-11-20T15:19:24;9.20;99.90
56861;DHT22;42744;51.094;3.490;2022-11-20T15:21:51;9.20;99.90
56861;DHT22;42744;51.094;3.490;2022-11-20T15:24:18;9.20;99.90
56861;DHT22;42744;51.094;3.490;2022-11-20T15:26:44;9.20;99.90
56861;DHT22;42744;51.094;3.490;2022-11-20T15:29:15;9.20;99.90
56861;DHT22;42744;51.094;3.490;2022-11-20T15:31:44;9.20;99.90
56861;DHT22;42744;51.094;3.490;2022-11-20T15:34:12;9.20;99.90
56861;DHT22;42744;51.094;3.490;2022-11-20T15:36:39;9.20;99.90
56861;DHT22;42744;51.094;3.490;2022-11-20T15:39:08;9.20;99.90
56861;DHT22;42744;51.094;3.490;2022-11-20T15:41:36;9.10;99.90
56861;DHT22;42744;51.094;3.490;2022-11-20T15:44:03;9.10;99.90
56861;DHT22;42744;51.094;3.490;2022-11-20T15:46:31;9.00;99.90
56861;DHT22;42744;51.094;3.490;2022-11-20T15:49:03;9.00;99.90
56861;DHT22;42744;51.094;3.490;2022-11-20T15:51:35;9.10;99.90
56861;DHT22;42744;51.094;3.490;2022-11-20T15:54:08;9.10;99.90
56861;DHT22;42744;51.094;3.490;2022-11-20T15:56:35;9.10;99.90
56861;DHT22;42744;51.094;3.490;2022-11-20T15:59:01;9.10;99.90
56861;DHT22;42744;51.094;3.490;2022-11-20T16:01:26;9.10;99.90
56861;DHT22;42744;51.094;3.490;2022-11-20T16:03:53;9.10;99.90
56861;DHT22;42744;51.094;3.490;2022-11-20T16:06:18;9.10;99.90
56861;DHT22;42744;51.094;3.490;2022-11-20T16:08:44;9.10;99.90
56861;DHT22;42744;51.094;3.490;2022-11-20T16:11:13;9.10;99.90
56861;DHT22;42744;51.094;3.490;2022-11-20T16:13:39;9.10;99.90
56861;DHT22;42744;51.094;3.490;2022-11-20T16:16:36;9.10;99.90
56861;DHT22;42744;51.094;3.490;2022-11-20T16:19:02;9.00;99.90
56861;DHT22;42744;51.094;3.490;2022-11-20T16:21:28;9.00;99.90
56861;DHT22;42744;51.094;3.490;2022-11-20T16:24:05;9.00;99.90
56861;DHT22;42744;51.094;3.490;2022-11-20T16:26:32;9.00;99.90
56861;DHT22;42744;51.094;3.490;2022-11-20T16:28:59;9.00;99.90
56861;DHT22;42744;51.094;3.490;2022-11-20T16:31:26;9.00;99.90
56861;DHT22;42744;51.094;3.490;2022-11-20T16:33:53;9.00;99.90
56861;DHT22;42744;51.094;3.490;2022-11-20T16:36:21;8.90;99.90
56861;DHT22;42744;51.094;3.490;2022-11-20T16:38:52;8.90;99.90
56861;DHT22;42744;51.094;3.490;2022-11-20T16:41:19;8.90;99.90
56861;DHT22;42744;51.094;3.490;2022-11-20T16:46:15;8.90;99.90
56861;DHT22;42744;51.094;3.490;2022-11-20T16:48:42;8.90;99.90
56861;DHT22;42744;51.094;3.490;2022-11-20T16:51:09;8.90;99.90
56861;DHT22;42744;51.094;3.490;2022-11-20T16:53:37;8.90;99.90
56861;DHT22;42744;51.094;3.490;2022-11-20T16:56:15;8.90;99.90
56861;DHT22;42744;51.094;3.490;2022-11-20T16:58:42;8.80;99.90
56861;DHT22;42744;51.094;3.490;2022-11-20T17:01:10;8.80;99.90
56861;DHT22;42744;51.094;3.490;2022-11-20T17:03:37;8.80;99.90
56861;DHT22;42744;51.094;3.490;2022-11-20T17:06:14;8.70;99.90
56861;DHT22;42744;51.094;3.490;2022-11-20T17:08:41;8.60;99.90
56861;DHT22;42744;51.094;3.490;2022-11-20T17:11:09;8.60;99.90
56861;DHT22;42744;51.094;3.490;2022-11-20T17:13:36;8.50;99.90
56861;DHT22;42744;51.094;3.490;2022-11-20T17:16:20;8.50;99.90
56861;DHT22;42744;51.094;3.490;2022-11-20T17:18:46;8.40;99.90
56861;DHT22;42744;51.094;3.490;2022-11-20T17:21:16;8.40;99.90
56861;DHT22;42744;51.094;3.490;2022-11-20T17:23:44;8.50;99.90
56861;DHT22;42744;51.094;3.490;2022-11-20T17:26:16;8.50;99.90
56861;DHT22;42744;51.094;3.490;2022-11-20T17:28:44;8.50;99.90
56861;DHT22;42744;51.094;3.490;2022-11-20T17:31:13;8.40;99.90
56861;DHT22;42744;51.094;3.490;2022-11-20T17:33:41;8.40;99.90
56861;DHT22;42744;51.094;3.490;2022-11-20T17:36:09;8.40;99.90
56861;DHT22;42744;51.094;3.490;2022-11-20T17:38:36;8.50;99.90
56861;DHT22;42744;51.094;3.490;2022-11-20T17:41:10;8.50;99.90
56861;DHT22;42744;51.094;3.490;2022-11-20T17:43:37;8.40;99.90
56861;DHT22;42744;51.094;3.490;2022-11-20T17:46:08;8.40;99.90
56861;DHT22;42744;51.094;3.490;2022-11-20T17:48:35;8.40;99.90